Time;durP1;ratioP1;P1;durP2;ratioP2;P2;SDS_P1;SDS_P2;PMS_P1;PMS_P2;Temp;Humidity;BMP_temperature;BMP_pressure;BME280_temperature;BME280_humidity;BME280_pressure;Samples;Min_cycle;Max_cycle;Signal;HPM_P1;HPM_P2
2023/10/21 00:02:21;;;;;;;2.72;1.35;;;;;;;21.52;60.36;97860.56;5308349;26;20406;-96
2023/10/21 00:04:46;;;;;;;0.10;0.10;;;;;;;21.54;60.35;97859.44;5307911;26;20063;-96
2023/10/21 00:07:11;;;;;;;0.03;0.03;;;;;;;21.57;60.37;97856.47;5308397;26;20377;-96
2023/10/21 00:09:37;;;;;;;1.35;0.70;;;;;;;21.65;60.37;97855.62;5327037;26;20384;-96
2023/10/21 00:12:02;;;;;;;0.20;0.20;;;;;;;21.68;60.37;97858.78;5307927;26;20449;-96
2023/10/21 00:14:28;;;;;;;5.30;1.52;;;;;;;21.93;60.37;97861.44;5307943;26;20060;-95
2023/10/21 00:16:54;;;;;;;0.37;0.10;;;;;;;21.85;60.37;97862.25;5308178;26;20106;-96
2023/10/21 00:19:19;;;;;;;2.35;1.73;;;;;;;22.03;60.39;97860.28;5326395;26;20090;-96
2023/10/21 00:21:45;;;;;;;0.00;0.00;;;;;;;22.25;60.40;97871.22;5307548;26;20366;-96
2023/10/21 00:24:11;;;;;;;0.75;0.75;;;;;;;22.06;60.39;97877.69;5307957;26;20064;-96
2023/10/21 00:26:44;;;;;;;3.40;2.30;;;;;;;22.15;60.39;97878.50;5308347;26;20076;-96
2023/10/21 00:29:11;;;;;;;7.65;2.00;;;;;;;22.15;60.39;97874.03;5308378;26;20059;-96
2023/10/21 00:31:37;;;;;;;0.88;0.80;;;;;;;22.02;60.38;97868.38;5308589;26;20424;-96
2023/10/21 00:34:03;;;;;;;0.15;0.15;;;;;;;22.20;60.40;97865.56;5307897;26;20060;-96
2023/10/21 00:36:28;;;;;;;3.20;1.33;;;;;;;22.22;60.40;97863.56;5315181;26;20059;-95
2023/10/21 00:38:54;;;;;;;7.05;1.98;;;;;;;22.09;60.38;97863.28;5311641;26;20132;-96
2023/10/21 00:41:19;;;;;;;3.72;0.65;;;;;;;22.29;60.40;97870.69;5308723;26;20099;-96
2023/10/21 00:43:45;;;;;;;3.42;1.35;;;;;;;22.10;60.39;97876.34;5308411;26;20386;-96
2023/10/21 00:46:19;;;;;;;2.20;0.80;;;;;;;22.19;60.40;97883.28;5308185;26;20082;-96
2023/10/21 00:48:45;;;;;;;0.95;0.70;;;;;;;22.28;60.40;97884.13;5326885;26;20638;-96
2023/10/21 00:51:11;;;;;;;0.30;0.30;;;;;;;22.30;60.40;97879.47;5308238;26;20056;-95
2023/10/21 00:53:37;;;;;;;0.10;0.10;;;;;;;22.24;60.39;97878.34;5308106;26;20360;-96
2023/10/21 00:56:03;;;;;;;1.17;1.10;;;;;;;22.37;60.40;97881.28;5308519;26;20052;-95
2023/10/21 00:58:31;;;;;;;3.47;0.47;;;;;;;22.47;60.41;97886.38;5326863;26;20048;-96
2023/10/21 01:00:57;;;;;;;4.87;0.95;;;;;;;22.55;60.41;97889.03;5309662;26;20127;-95
2023/10/21 01:03:24;;;;;;;0.88;0.85;;;;;;;22.29;60.40;97899.03;5308736;26;20074;-95
2023/10/21 01:05:50;;;;;;;2.83;1.15;;;;;;;22.29;60.40;97899.84;5309063;26;20021;-96
2023/10/21 01:08:15;;;;;;;0.30;0.30;;;;;;;22.23;60.39;97900.50;5308655;26;20044;-96
2023/10/21 01:10:41;;;;;;;0.20;0.13;;;;;;;22.25;60.40;97893.25;5308470;26;20115;-95
2023/10/21 01:13:06;;;;;;;2.55;0.62;;;;;;;22.26;60.40;97902.84;5308521;26;20064;-96
2023/10/21 01:15:32;;;;;;;0.80;0.80;;;;;;;22.17;60.38;97901.19;5308785;26;20053;-96
2023/10/21 01:17:57;;;;;;;0.20;0.20;;;;;;;22.42;60.42;97896.66;5309037;26;20049;-96
2023/10/21 01:20:22;;;;;;;0.37;0.37;;;;;;;22.35;60.41;97893.03;5308481;26;20060;-95
2023/10/21 01:22:48;;;;;;;0.35;0.15;;;;;;;22.42;60.42;97885.22;5308991;26;20097;-95
2023/10/21 01:25:13;;;;;;;1.37;0.98;;;;;;;22.41;60.41;97891.53;5328446;26;20066;-96
2023/10/21 01:27:42;;;;;;;1.52;0.88;;;;;;;22.40;60.41;97898.66;5310207;26;20380;-96
2023/10/21 01:30:08;;;;;;;2.85;1.42;;;;;;;22.56;60.42;97900.47;5309777;26;20056;-95
2023/10/21 01:32:33;;;;;;;0.30;0.30;;;;;;;22.61;60.42;97906.06;5328160;26;20055;-95
2023/10/21 01:34:59;;;;;;;0.00;0.00;;;;;;;22.40;60.40;97903.13;5309803;26;20361;-96
2023/10/21 01:37:25;;;;;;;0.73;0.57;;;;;;;22.54;60.41;97908.59;5313703;26;20084;-94
2023/10/21 01:39:50;;;;;;;0.50;0.50;;;;;;;22.60;60.42;97909.72;5310310;26;20088;-95
2023/10/21 01:42:15;;;;;;;2.10;1.70;;;;;;;22.63;60.43;97902.25;5310373;26;20117;-95
2023/10/21 01:44:42;;;;;;;4.57;0.62;;;;;;;22.64;60.43;97903.06;5329998;26;20092;-94
2023/10/21 01:47:07;;;;;;;0.05;0.05;;;;;;;22.73;60.43;97885.34;5310315;26;20039;-96
2023/10/21 01:49:32;;;;;;;0.70;0.52;;;;;;;22.73;60.43;97885.34;5309908;26;20068;-96
2023/10/21 01:51:58;;;;;;;0.20;0.20;;;;;;;22.74;60.43;97890.47;5310190;26;20111;-95
2023/10/21 01:54:23;;;;;;;0.62;0.55;;;;;;;22.76;60.42;97903.56;5309457;26;20392;-96
2023/10/21 01:56:49;;;;;;;4.12;2.20;;;;;;;22.81;60.43;97912.69;5310503;26;20083;-95
2023/10/21 01:59:15;;;;;;;3.10;1.85;;;;;;;22.68;60.42;97915.81;5306756;26;20071;-95
2023/10/21 02:01:41;;;;;;;3.50;1.45;;;;;;;22.70;60.42;97906.88;5306753;26;20070;-96
2023/10/21 02:04:06;;;;;;;0.37;0.37;;;;;;;22.74;60.43;97910.84;5307029;26;20021;-95
2023/10/21 02:06:32;;;;;;;1.25;1.08;;;;;;;22.64;60.42;97919.00;5306768;26;20447;-96
2023/10/21 02:08:57;;;;;;;2.28;0.88;;;;;;;22.72;60.42;97920.81;5306776;26;20094;-96
2023/10/21 02:11:24;;;;;;;0.95;0.52;;;;;;;22.81;60.43;97938.34;5306559;26;20049;-96
2023/10/21 02:13:49;;;;;;;0.50;0.50;;;;;;;22.71;60.41;97941.19;5307155;26;20021;-96
2023/10/21 02:16:15;;;;;;;1.40;1.17;;;;;;;22.64;60.42;97942.84;5306458;26;20167;-95
2023/10/21 02:18:40;;;;;;;1.45;0.98;;;;;;;22.60;60.41;97941.53;5306438;26;20449;-96
2023/10/21 02:21:06;;;;;;;0.93;0.77;;;;;;;22.64;60.43;97949.00;5325068;26;20379;-96
2023/10/21 02:23:31;;;;;;;0.32;0.32;;;;;;;22.74;60.42;97959.44;5307010;26;20307;-96
2023/10/21 02:26:02;;;;;;;3.40;1.60;;;;;;;22.76;60.42;97962.75;5306070;26;20496;-96
2023/10/21 02:28:28;;;;;;;17.27;2.05;;;;;;;22.68;60.42;97981.31;5310576;26;20029;-96
2023/10/21 02:30:56;;;;;;;0.73;0.73;;;;;;;22.61;60.42;97980.31;5311739;26;20071;-96
2023/10/21 02:33:24;;;;;;;2.72;1.15;;;;;;;22.38;60.40;97985.50;5311291;26;20061;-96
2023/10/21 02:35:53;;;;;;;1.95;1.60;;;;;;;22.45;60.41;97986.47;5321885;26;20060;-96
2023/10/21 02:38:19;;;;;;;0.50;0.50;;;;;;;22.40;60.41;97972.87;5358250;26;20083;-96
2023/10/21 02:40:46;;;;;;;0.80;0.43;;;;;;;22.56;60.42;97972.06;5358024;26;20074;-96
2023/10/21 02:43:12;;;;;;;1.25;0.52;;;;;;;22.67;60.42;97963.72;5358043;26;20052;-96
2023/10/21 02:45:50;;;;;;;2.15;1.17;;;;;;;22.52;60.41;97973.41;5356879;26;20024;-96
2023/10/21 02:48:15;;;;;;;1.45;1.10;;;;;;;22.65;60.42;97965.72;5354372;26;20060;-96
2023/10/21 02:51:00;;;;;;;0.98;0.30;;;;;;;22.67;60.41;97966.37;5356695;26;20101;-96
2023/10/21 02:53:34;;;;;;;1.05;0.88;;;;;;;22.70;60.42;97963.38;5369797;26;20020;-96
2023/10/21 02:56:03;;;;;;;0.50;0.50;;;;;;;22.75;60.42;97963.75;5363430;26;20071;-96
2023/10/21 02:58:29;;;;;;;0.65;0.40;;;;;;;22.71;60.41;97965.03;5374522;26;20108;-96
2023/10/21 03:00:54;;;;;;;0.73;0.73;;;;;;;22.61;60.42;97973.19;5353476;26;20086;-96
2023/10/21 03:03:20;;;;;;;2.55;2.35;;;;;;;22.54;60.41;97969.56;5353640;26;20122;-96
2023/10/21 03:05:45;;;;;;;1.87;1.17;;;;;;;22.48;60.41;97977.38;5352724;26;20660;-96
2023/10/21 03:08:11;;;;;;;0.52;0.45;;;;;;;22.51;60.41;97979.69;5352767;26;20093;-96
2023/10/21 03:10:37;;;;;;;1.25;1.20;;;;;;;22.52;60.41;97994.59;5353175;26;20080;-96
2023/10/21 03:13:03;;;;;;;10.13;0.85;;;;;;;22.39;60.40;97995.09;5355074;26;20051;-96
2023/10/21 03:15:31;;;;;;;0.43;0.35;;;;;;;22.40;60.41;97994.09;5353216;26;20069;-96
2023/10/21 03:17:59;;;;;;;1.08;0.62;;;;;;;22.34;60.41;97998.25;5352648;26;20082;-95
2023/10/21 03:20:25;;;;;;;1.62;1.15;;;;;;;22.40;60.41;98004.69;5352135;26;20443;-94
2023/10/21 03:22:50;;;;;;;0.30;0.20;;;;;;;22.36;60.40;98004.22;5352288;26;20070;-95
2023/10/21 03:25:17;;;;;;;0.55;0.55;;;;;;;22.36;60.40;97998.91;5351966;26;20115;-95
2023/10/21 03:27:43;;;;;;;0.10;0.10;;;;;;;22.38;60.40;97998.75;5334781;26;20028;-94
2023/10/21 03:30:08;;;;;;;1.65;1.37;;;;;;;22.31;60.40;97992.47;5370954;26;20104;-95
2023/10/21 03:32:34;;;;;;;0.45;0.40;;;;;;;22.29;60.40;98000.56;5334715;26;20728;-94
2023/10/21 03:34:59;;;;;;;11.80;0.93;;;;;;;22.51;60.42;98003.56;5342159;26;20067;-94
2023/10/21 03:37:25;;;;;;;0.13;0.13;;;;;;;22.55;60.40;98000.41;5340752;26;20426;-95
2023/10/21 03:39:51;;;;;;;0.52;0.52;;;;;;;22.34;60.41;97995.59;5338652;26;20115;-96
2023/10/21 03:42:20;;;;;;;0.20;0.20;;;;;;;22.35;60.40;98004.37;5340624;26;20793;-96
2023/10/21 03:44:48;;;;;;;2.40;1.53;;;;;;;22.28;60.40;98006.03;5374927;26;20059;-96
2023/10/21 03:47:14;;;;;;;2.80;0.70;;;;;;;22.34;60.41;98005.38;5357886;26;20083;-96
2023/10/21 03:49:41;;;;;;;8.57;0.90;;;;;;;22.41;60.41;98016.12;5338785;26;20117;-96
2023/10/21 03:52:06;;;;;;;3.90;0.90;;;;;;;22.36;60.41;98014.81;5376119;26;20055;-96
2023/10/21 03:54:35;;;;;;;2.55;0.82;;;;;;;22.45;60.41;98020.94;5338555;26;20092;-96
2023/10/21 03:57:01;;;;;;;6.28;1.12;;;;;;;22.45;60.40;98041.31;5339161;26;20067;-96
2023/10/21 03:59:27;;;;;;;21.77;1.52;;;;;;;22.49;60.41;98051.44;5338630;26;20094;-96
2023/10/21 04:01:53;;;;;;;4.57;2.17;;;;;;;22.46;60.40;98056.22;5339877;26;20059;-96
2023/10/21 04:04:19;;;;;;;4.28;2.15;;;;;;;22.37;60.40;98064.19;5337811;26;20313;-96
2023/10/21 04:06:45;;;;;;;1.10;0.45;;;;;;;22.41;60.41;98074.47;5338433;26;20042;-96
2023/10/21 04:09:11;;;;;;;0.08;0.08;;;;;;;22.46;60.41;98072.97;5335710;26;20076;-96
2023/10/21 04:11:37;;;;;;;1.37;1.27;;;;;;;22.51;60.41;98064.53;5334752;26;20126;-96
2023/10/21 04:14:04;;;;;;;0.90;0.52;;;;;;;22.50;60.41;98078.78;5334958;26;20432;-95
2023/10/21 04:16:30;;;;;;;1.45;1.35;;;;;;;22.61;60.42;98073.16;5333654;26;20114;-95
2023/10/21 04:18:56;;;;;;;0.43;0.43;;;;;;;22.59;60.42;98070.66;5333309;26;20134;-95
2023/10/21 04:21:21;;;;;;;2.20;1.10;;;;;;;22.59;60.42;98083.09;5333198;26;20101;-95
2023/10/21 04:23:47;;;;;;;1.05;0.95;;;;;;;22.57;60.42;98090.38;5333346;26;20134;-95
2023/10/21 04:26:12;;;;;;;0.22;0.22;;;;;;;22.52;60.41;98085.59;5333731;26;20066;-95
2023/10/21 04:28:38;;;;;;;1.08;0.98;;;;;;;22.51;60.41;98097.19;5333430;26;20071;-95
2023/10/21 04:31:03;;;;;;;0.95;0.93;;;;;;;22.51;60.41;98096.37;5335515;26;20092;-95
2023/10/21 04:33:29;;;;;;;0.50;0.50;;;;;;;22.52;60.41;98098.03;5336637;26;20101;-95
2023/10/21 04:35:54;;;;;;;0.52;0.52;;;;;;;22.44;60.41;98098.00;5341711;26;20081;-95
2023/10/21 04:38:20;;;;;;;7.57;2.85;;;;;;;22.36;60.40;98107.59;5339033;26;20096;-95
2023/10/21 04:40:46;;;;;;;0.20;0.20;;;;;;;22.20;60.40;98102.25;5335867;26;20063;-96
2023/10/21 04:43:11;;;;;;;2.47;0.73;;;;;;;22.30;60.40;98118.03;5336232;26;20047;-95
2023/10/21 04:45:37;;;;;;;2.08;1.55;;;;;;;22.24;60.40;98123.97;5335810;26;20059;-96
2023/10/21 04:48:03;;;;;;;0.08;0.08;;;;;;;22.28;60.40;98127.97;5337826;26;20078;-95
2023/10/21 04:50:29;;;;;;;0.50;0.50;;;;;;;22.25;60.41;98130.94;5336781;26;20854;-95
2023/10/21 04:52:54;;;;;;;0.45;0.45;;;;;;;22.18;60.40;98129.91;5336989;26;20048;-95
2023/10/21 04:55:21;;;;;;;0.68;0.68;;;;;;;22.20;60.40;98143.84;5337469;26;20063;-95
2023/10/21 04:57:48;;;;;;;0.00;0.00;;;;;;;22.11;60.40;98155.41;5340612;26;20688;-96
2023/10/21 05:00:14;;;;;;;0.00;0.00;;;;;;;22.11;60.39;98160.72;5340303;26;20056;-95
2023/10/21 05:02:43;;;;;;;1.12;1.02;;;;;;;21.98;60.38;98169.91;5343129;26;20068;-95
2023/10/21 05:05:12;;;;;;;1.30;1.00;;;;;;;21.79;60.36;98172.00;5343770;26;20063;-96
2023/10/21 05:07:38;;;;;;;0.68;0.45;;;;;;;21.76;60.37;98163.34;5359566;26;20119;-96
2023/10/21 05:10:14;;;;;;;10.20;1.12;;;;;;;21.81;60.37;98168.19;5340755;26;20023;-96
2023/10/21 05:12:40;;;;;;;3.72;2.35;;;;;;;21.64;60.37;98169.09;5360181;26;20646;-95
2023/10/21 05:15:06;;;;;;;0.35;0.30;;;;;;;21.56;60.36;98147.88;5337980;26;20060;-96
2023/10/21 05:17:34;;;;;;;0.45;0.40;;;;;;;21.54;60.35;98148.03;5340792;26;20059;-96
2023/10/21 05:20:04;;;;;;;0.47;0.47;;;;;;;21.48;60.36;98132.75;5341255;26;20795;-96
2023/10/21 05:22:34;;;;;;;0.00;0.00;;;;;;;21.38;60.35;98126.75;5358563;26;20080;-96
2023/10/21 05:25:00;;;;;;;0.65;0.40;;;;;;;21.33;60.35;98151.03;5357974;26;20064;-96
2023/10/21 05:27:26;;;;;;;0.00;0.00;;;;;;;21.43;60.36;98153.56;5357127;26;20314;-95
2023/10/21 05:29:51;;;;;;;0.20;0.20;;;;;;;21.28;60.35;98123.38;5337099;26;20059;-95
2023/10/21 05:32:17;;;;;;;2.87;1.42;;;;;;;21.20;60.34;98133.87;5337900;26;20104;-95
2023/10/21 05:34:42;;;;;;;0.05;0.05;;;;;;;21.05;60.33;98139.72;5357443;26;20412;-96
2023/10/21 05:37:08;;;;;;;0.17;0.17;;;;;;;21.25;60.35;98131.63;5346874;26;20297;-96
2023/10/21 05:39:34;;;;;;;5.12;1.00;;;;;;;21.29;60.34;98135.59;5358995;26;20055;-96
2023/10/21 05:42:00;;;;;;;0.37;0.28;;;;;;;21.26;60.34;98135.91;5339127;26;20121;-96
2023/10/21 05:44:25;;;;;;;1.73;0.88;;;;;;;21.18;60.34;98128.75;5335908;26;20063;-96
2023/10/21 05:46:51;;;;;;;0.93;0.75;;;;;;;21.07;60.33;98143.06;5335914;26;20063;-95
2023/10/21 05:49:18;;;;;;;0.15;0.15;;;;;;;21.11;60.34;98147.06;5354776;26;20065;-96
2023/10/21 05:51:46;;;;;;;3.83;1.30;;;;;;;21.21;60.34;98165.47;5337043;26;20051;-96
2023/10/21 05:54:15;;;;;;;11.18;0.95;;;;;;;21.10;60.33;98171.84;5339593;26;20032;-96
2023/10/21 05:56:43;;;;;;;1.90;1.80;;;;;;;21.06;60.33;98177.63;5343763;26;20099;-96
2023/10/21 05:59:10;;;;;;;0.03;0.03;;;;;;;20.97;60.33;98182.00;5360416;26;20023;-95
2023/10/21 06:01:36;;;;;;;0.85;0.55;;;;;;;21.04;60.33;98198.91;5284504;26;1456816;-96
2023/10/21 06:04:02;;;;;;;0.28;0.28;;;;;;;21.07;60.33;98205.72;5341928;26;20075;-96
2023/10/21 06:06:30;;;;;;;5.37;1.37;;;;;;;20.90;60.32;98217.97;5338858;26;20069;-96
2023/10/21 06:08:56;;;;;;;0.70;0.60;;;;;;;21.09;60.34;98231.03;5339902;26;20028;-96
2023/10/21 06:11:23;;;;;;;0.32;0.20;;;;;;;21.08;60.33;98241.78;5341206;26;20097;-96
2023/10/21 06:13:50;;;;;;;0.00;0.00;;;;;;;21.17;60.33;98243.50;5377868;26;20075;-96
2023/10/21 06:16:59;;;;;;;0.00;0.00;;;;;;;20.95;60.33;98260.66;5379908;26;20074;-96
2023/10/21 06:19:36;;;;;;;1.65;1.00;;;;;;;21.09;60.33;98269.91;5383589;26;20111;-96
2023/10/21 06:22:03;;;;;;;0.40;0.35;;;;;;;20.98;60.32;98273.59;5381667;26;20027;-96
2023/10/21 06:24:29;;;;;;;1.58;1.02;;;;;;;21.04;60.32;98257.09;5344928;26;20112;-96
2023/10/21 06:26:58;;;;;;;0.37;0.32;;;;;;;21.08;60.32;98263.78;5343975;26;20028;-96
2023/10/21 06:29:27;;;;;;;1.87;1.45;;;;;;;21.02;60.33;98279.41;5342780;26;20792;-96
2023/10/21 06:32:16;;;;;;;0.32;0.13;;;;;;;20.96;60.32;98285.31;5378091;26;20094;-96
2023/10/21 06:35:03;;;;;;;1.73;0.68;;;;;;;20.92;60.32;98283.94;5387903;26;20119;-96
2023/10/21 06:37:41;;;;;;;1.98;0.70;;;;;;;20.89;60.32;98297.47;5370331;26;20028;-96
2023/10/21 06:40:09;;;;;;;0.10;0.10;;;;;;;20.86;60.32;98300.41;5382406;26;20028;-96
2023/10/21 06:42:36;;;;;;;0.00;0.00;;;;;;;20.80;60.31;98305.31;5379195;26;20028;-96
2023/10/21 06:45:02;;;;;;;0.30;0.30;;;;;;;20.82;60.32;98307.81;5339597;26;20094;-96
2023/10/21 06:47:45;;;;;;;1.00;0.75;;;;;;;20.64;60.31;98310.44;5342740;26;20027;-96
2023/10/21 06:50:28;;;;;;;0.30;0.30;;;;;;;20.79;60.31;98329.25;5366146;26;20028;-96
2023/10/21 06:55:58;;;;;;;0.10;0.10;;;;;;;20.86;60.32;98319.75;5356162;26;20033;-96
2023/10/21 07:01:21;;;;;;;0.00;0.00;;;;;;;20.86;60.32;98324.22;5365201;26;20033;-95
2023/10/21 07:07:05;;;;;;;0.32;0.05;;;;;;;20.74;60.31;98339.44;5362185;26;20082;-96
2023/10/21 07:09:42;;;;;;;0.37;0.32;;;;;;;20.74;60.31;98323.59;5382718;26;20035;-96
2023/10/21 07:12:48;;;;;;;0.10;0.10;;;;;;;20.74;60.31;98323.59;5360615;26;20020;-96
2023/10/21 07:15:28;;;;;;;1.27;1.17;;;;;;;20.74;60.31;98326.22;5382046;26;20021;-96
2023/10/21 07:31:11;;;;;;;0.00;0.00;;;;;;;20.68;60.30;98361.19;5291929;26;20113;-96
2023/10/21 08:29:36;;;;;;;0.28;0.28;;;;;;;20.81;60.31;98470.09;5316475;26;20088;31
2023/10/21 09:08:35;;;;;;;1.17;0.75;;;;;;;21.56;60.34;98505.31;5351600;26;20120;-95
2023/10/21 09:11:06;;;;;;;1.23;0.55;;;;;;;21.45;60.34;98504.53;5311124;26;20056;-94
2023/10/21 09:13:35;;;;;;;0.00;0.00;;;;;;;21.43;60.34;98508.31;5320321;26;20079;-95
2023/10/21 09:16:04;;;;;;;0.00;0.00;;;;;;;21.48;60.34;98515.78;5342209;26;20031;-96
2023/10/21 09:18:37;;;;;;;0.20;0.20;;;;;;;21.34;60.34;98517.97;5361814;26;20048;-96
2023/10/21 09:21:12;;;;;;;0.00;0.00;;;;;;;21.33;60.34;98515.47;5359314;26;20056;-96
2023/10/21 09:23:55;;;;;;;1.55;0.52;;;;;;;21.31;60.33;98523.56;5359109;26;20032;-96
2023/10/21 09:27:10;;;;;;;2.40;0.88;;;;;;;21.27;60.33;98521.34;5378591;26;20035;-96
2023/10/21 09:29:38;;;;;;;0.32;0.30;;;;;;;21.12;60.33;98520.97;5380732;26;20047;-96
2023/10/21 09:32:09;;;;;;;1.37;0.98;;;;;;;21.10;60.32;98504.41;5376242;26;20057;-96
2023/10/21 09:34:37;;;;;;;0.00;0.00;;;;;;;21.05;60.32;98512.75;5357887;26;20032;-96
2023/10/21 09:37:38;;;;;;;;;;;;;;;;;;;;;
2023/10/21 09:40:17;;;;;;;0.47;0.47;;;;;;;20.99;60.32;98501.94;5382155;26;35412;-96
2023/10/21 09:43:22;;;;;;;0.00;0.00;;;;;;;21.08;60.32;98511.66;5381708;26;20036;-96
2023/10/21 09:45:59;;;;;;;0.00;0.00;;;;;;;21.13;60.33;98517.34;5364324;26;20082;-96
2023/10/21 09:48:51;;;;;;;0.25;0.25;;;;;;;21.26;60.33;98511.72;5361093;26;20024;-96
2023/10/21 09:51:37;;;;;;;0.40;0.35;;;;;;;21.37;60.34;98506.25;5383232;26;20020;-96
2023/10/21 09:54:52;;;;;;;0.30;0.20;;;;;;;21.49;60.35;98507.69;5381092;26;20039;-96
2023/10/21 10:00:46;;;;;;;0.15;0.15;;;;;;;21.67;60.35;98510.38;5382347;26;20042;-96
2023/10/21 10:48:07;;;;;;;0.00;0.00;;;;;;;22.91;60.42;98454.59;5377762;26;20028;-96
2023/10/21 10:50:42;;;;;;;0.10;0.10;;;;;;;22.85;60.41;98468.50;5341593;26;20076;-96
2023/10/21 10:59:00;;;;;;;0.00;0.00;;;;;;;22.74;60.41;98471.41;5372602;26;20610;-96
2023/10/21 11:02:17;;;;;;;1.75;0.70;;;;;;;22.80;60.42;98493.81;5356389;26;20033;-96
2023/10/21 11:10:52;;;;;;;;;;;;;;;;;;;;;
2023/10/21 11:16:42;;;;;;;0.10;0.10;;;;;;;22.88;60.42;98500.00;5366751;26;20036;-96
2023/10/21 11:19:45;;;;;;;0.32;0.32;;;;;;;23.01;60.42;98522.66;5342998;26;20054;-95
2023/10/21 11:22:28;;;;;;;0.55;0.55;;;;;;;23.20;60.42;98517.13;5318982;26;20036;-96
2023/10/21 11:25:03;;;;;;;1.35;0.80;;;;;;;23.21;60.43;98502.84;5330987;26;20112;-96
2023/10/21 11:27:30;;;;;;;2.30;1.55;;;;;;;23.27;60.44;98500.37;5286957;27;20792;-95
2023/10/21 11:30:19;;;;;;;0.35;0.35;;;;;;;23.26;60.43;98496.06;5284311;27;20065;-96
2023/10/21 11:32:54;;;;;;;0.32;0.32;;;;;;;23.22;60.43;98518.62;5283555;27;20076;-96
2023/10/21 11:35:21;;;;;;;0.47;0.40;;;;;;;23.15;60.43;98516.72;5292451;27;20061;-95
2023/10/21 11:37:57;;;;;;;;;;;;;;;;;;;;;
2023/10/21 11:40:26;;;;;;;1.40;1.25;;;;;;;23.18;60.43;98527.03;5295553;26;35791;-96
2023/10/21 11:43:11;;;;;;;0.00;0.00;;;;;;;23.16;60.43;98527.19;5311111;26;20116;-96
2023/10/21 11:45:37;;;;;;;0.47;0.40;;;;;;;23.12;60.43;98528.50;5310111;26;20047;-96
2023/10/21 11:48:53;;;;;;;0.00;0.00;;;;;;;23.10;60.43;98545.59;5307748;26;20088;-96
2023/10/21 11:54:48;;;;;;;0.10;0.10;;;;;;;23.12;60.43;98557.69;5345158;26;20027;-95
2023/10/21 12:12:49;;;;;;;0.20;0.20;;;;;;;23.37;60.45;98549.84;5351388;26;20120;-95
2023/10/21 12:21:17;;;;;;;0.05;0.03;;;;;;;23.34;60.44;98561.63;5341294;26;20035;-95
2023/10/21 12:24:27;;;;;;;1.80;0.68;;;;;;;23.12;60.44;98575.44;5336631;26;20078;-96
2023/10/21 12:27:59;;;;;;;0.00;0.00;;;;;;;23.25;60.44;98583.84;5345011;26;20025;-96
2023/10/21 12:40:42;;;;;;;0.47;0.47;;;;;;;22.85;60.42;98606.47;5334476;26;20133;-94
2023/10/21 12:43:34;;;;;;;0.10;0.10;;;;;;;22.79;60.41;98617.66;5315218;26;20119;-96
2023/10/21 12:46:12;;;;;;;0.00;0.00;;;;;;;22.82;60.42;98621.87;5351158;26;20056;-95
2023/10/21 12:48:38;;;;;;;0.03;0.03;;;;;;;22.72;60.40;98626.41;5314773;26;20036;-95
2023/10/21 12:51:07;;;;;;;0.00;0.00;;;;;;;22.42;60.40;98630.25;5330109;26;20070;-94
2023/10/21 12:53:33;;;;;;;0.93;0.45;;;;;;;22.24;60.38;98644.34;5312849;26;20056;-96
2023/10/21 12:56:18;;;;;;;0.15;0.15;;;;;;;22.35;60.40;98641.47;5309885;26;20063;-95
2023/10/21 12:58:58;;;;;;;0.00;0.00;;;;;;;22.17;60.37;98643.25;5347748;26;20065;-96
2023/10/21 13:01:26;;;;;;;0.00;0.00;;;;;;;22.23;60.38;98650.63;5350844;26;20045;-95
2023/10/21 13:03:52;;;;;;;0.00;0.00;;;;;;;22.23;60.38;98645.31;5311977;26;20131;-94
2023/10/21 13:06:18;;;;;;;0.20;0.15;;;;;;;22.03;60.38;98654.34;5309422;26;20052;-96
2023/10/21 13:08:55;;;;;;;0.00;0.00;;;;;;;22.18;60.39;98652.87;5347928;26;20060;-95
2023/10/21 13:11:20;;;;;;;0.00;0.00;;;;;;;22.14;60.39;98650.69;5312746;26;20071;-95
2023/10/21 13:14:34;;;;;;;;;;;;;;;;;;;;;
2023/10/21 13:17:07;;;;;;;0.60;0.43;;;;;;;22.05;60.38;98649.78;5347073;26;37143;-96
2023/10/21 13:22:50;;;;;;;0.20;0.20;;;;;;;21.71;60.36;98650.31;5312593;26;20115;-96
2023/10/21 13:25:38;;;;;;;0.70;0.55;;;;;;;21.61;60.35;98656.66;5305765;26;20060;-96
2023/10/21 13:28:10;;;;;;;0.00;0.00;;;;;;;21.60;60.35;98650.50;5330808;26;20063;-96
2023/10/21 13:31:19;;;;;;;;;;;;;;;;;;;;;
2023/10/21 13:34:07;;;;;;;0.00;0.00;;;;;;;21.48;60.35;98630.47;5332011;26;36164;-96
2023/10/21 13:37:00;;;;;;;0.00;0.00;;;;;;;21.50;60.35;98622.37;5358755;26;20020;-96
2023/10/21 13:40:02;;;;;;;0.00;0.00;;;;;;;21.52;60.35;98621.25;5356424;26;20051;-96
2023/10/21 13:42:53;;;;;;;0.10;0.10;;;;;;;21.49;60.35;98616.25;5348156;26;20024;-96
2023/10/21 13:46:15;;;;;;;0.00;0.00;;;;;;;21.59;60.35;98618.88;5332105;26;20056;-96
2023/10/21 13:49:19;;;;;;;0.15;0.15;;;;;;;21.55;60.35;98617.50;5332630;27;20068;-96
2023/10/21 13:55:29;;;;;;;0.00;0.00;;;;;;;21.59;60.35;98593.22;5373358;26;20060;-96
2023/10/21 13:58:35;;;;;;;1.42;0.62;;;;;;;21.61;60.35;98585.13;5354017;26;20053;-96
2023/10/21 14:01:26;;;;;;;;;;;;;;;;;;;;;
2023/10/21 14:04:29;;;;;;;0.13;0.13;;;;;;;21.68;60.35;98581.75;5374341;26;35135;-96
2023/10/21 14:07:24;;;;;;;0.10;0.10;;;;;;;21.76;60.36;98576.53;5375105;26;20020;-96
2023/10/21 14:10:30;;;;;;;;;;;;;;;;;;;;;
2023/10/21 14:13:35;;;;;;;0.05;0.05;;;;;;;21.74;60.36;98590.91;5304762;26;36685;-95
2023/10/21 14:16:14;;;;;;;0.05;0.05;;;;;;;21.85;60.36;98590.72;5286469;27;20095;-96
2023/10/21 14:19:06;;;;;;;0.00;0.00;;;;;;;21.96;60.38;98592.31;5308050;26;20100;-95
2023/10/21 14:22:29;;;;;;;;;;;;;;;;;;;;;
2023/10/21 14:25:25;;;;;;;0.00;0.00;;;;;;;22.05;60.38;98589.66;5306003;26;20053;-96
2023/10/21 14:28:30;;;;;;;0.00;0.00;;;;;;;21.90;60.37;98598.22;5305726;27;20122;-96
2023/10/21 14:31:28;;;;;;;0.00;0.00;;;;;;;21.86;60.36;98595.03;5287389;27;20142;-96
2023/10/21 14:34:25;;;;;;;0.13;0.13;;;;;;;21.80;60.36;98593.00;5270033;27;20053;-96
2023/10/21 14:37:31;;;;;;;0.00;0.00;;;;;;;21.55;60.34;98589.22;5272579;27;20674;-96
2023/10/21 14:40:10;;;;;;;;;;;;;;;;;;;;;
2023/10/21 14:46:26;;;;;;;0.50;0.25;;;;;;;21.52;60.35;98600.06;5271067;27;20042;-96
2023/10/21 14:49:15;;;;;;;0.10;0.10;;;;;;;21.51;60.35;98606.34;5262480;27;20121;-96
2023/10/21 14:52:13;;;;;;;1.00;0.55;;;;;;;21.50;60.35;98595.91;5225047;27;20132;-96
2023/10/21 14:55:08;;;;;;;0.68;0.50;;;;;;;21.63;60.35;98601.72;5260111;27;20064;-96
2023/10/21 14:57:57;;;;;;;0.00;0.00;;;;;;;21.44;60.35;98602.62;5245586;27;20118;-96
2023/10/21 15:00:27;;;;;;;0.00;0.00;;;;;;;21.45;60.35;98597.19;5238970;27;20069;-96
2023/10/21 15:06:30;;;;;;;0.35;0.22;;;;;;;21.55;60.35;98604.28;5308884;26;20055;-96
2023/10/21 15:11:54;;;;;;;0.05;0.05;;;;;;;21.60;60.35;98594.91;5350312;26;20025;-96
2023/10/21 15:14:23;;;;;;;0.10;0.10;;;;;;;21.54;60.35;98602.59;5335155;26;20118;-92
2023/10/21 15:16:49;;;;;;;0.75;0.45;;;;;;;21.34;60.34;98597.38;5335175;26;20521;-94
2023/10/21 15:19:14;;;;;;;0.45;0.25;;;;;;;21.25;60.33;98597.41;5334201;26;20099;-95
2023/10/21 15:21:40;;;;;;;1.20;1.10;;;;;;;21.45;60.35;98593.72;5334910;26;20103;-95
2023/10/21 15:24:06;;;;;;;3.25;1.02;;;;;;;21.31;60.34;98607.44;5334235;26;20154;-96
2023/10/21 15:26:32;;;;;;;0.00;0.00;;;;;;;21.32;60.33;98598.50;5335314;26;20056;-96
2023/10/21 15:29:01;;;;;;;0.30;0.30;;;;;;;21.32;60.34;98593.22;5335504;26;20052;-95
2023/10/21 15:32:31;;;;;;;2.97;0.47;;;;;;;21.26;60.34;98599.06;5337398;26;20023;-96
2023/10/21 15:35:17;;;;;;;0.93;0.90;;;;;;;21.34;60.34;98607.13;5362163;26;20035;-96
2023/10/21 15:37:43;;;;;;;0.00;0.00;;;;;;;21.30;60.33;98609.25;5336345;26;20472;-96
2023/10/21 15:40:12;;;;;;;0.35;0.35;;;;;;;21.03;60.32;98625.84;5336485;26;20056;-96
2023/10/21 15:42:38;;;;;;;0.40;0.37;;;;;;;21.12;60.33;98629.47;5341274;26;20063;-96
2023/10/21 15:45:07;;;;;;;0.13;0.13;;;;;;;21.12;60.33;98632.94;5326600;26;20051;-96
2023/10/21 15:47:45;;;;;;;0.17;0.13;;;;;;;21.04;60.32;98638.09;5360981;26;20056;-96
2023/10/21 15:50:16;;;;;;;0.30;0.30;;;;;;;21.03;60.33;98654.09;5344102;26;20056;-96
2023/10/21 15:52:49;;;;;;;0.28;0.20;;;;;;;21.08;60.32;98646.59;5353572;26;20044;-96
2023/10/21 15:55:19;;;;;;;0.60;0.50;;;;;;;20.99;60.32;98645.63;5355971;26;20094;-96
2023/10/21 15:57:58;;;;;;;18.55;1.20;;;;;;;21.01;60.33;98641.03;5324007;26;20070;-95
2023/10/21 16:00:29;;;;;;;0.15;0.15;;;;;;;20.82;60.31;98646.34;5356397;26;20076;-96
2023/10/21 16:02:55;;;;;;;0.00;0.00;;;;;;;20.93;60.31;98651.47;5351794;26;20028;-96
2023/10/21 16:05:20;;;;;;;0.00;0.00;;;;;;;20.84;60.31;98657.63;5313510;26;20412;-95